createdAt,value
2024-04-25T00:00:40.556Z,89.05
2024-04-25T00:01:40.524Z,89.05
2024-04-25T00:02:40.524Z,88.21
2024-04-25T00:03:40.482Z,88.09
2024-04-25T00:04:40.483Z,87.98
2024-04-25T00:05:40.477Z,87.94
2024-04-25T00:06:40.472Z,87.93
2024-04-25T00:07:40.435Z,87.65
2024-04-25T00:08:40.461Z,87.65
2024-04-25T00:09:40.427Z,87.30
2024-04-25T00:10:40.402Z,87.27
2024-04-25T00:11:40.557Z,87.44
2024-04-25T00:12:40.386Z,87.80
2024-04-25T00:13:40.391Z,87.65
2024-04-25T00:14:40.416Z,87.90
2024-04-25T00:15:40.356Z,88.00
2024-04-25T00:16:40.407Z,87.41
2024-04-25T00:17:40.403Z,87.50
2024-04-25T00:18:40.312Z,87.80
2024-04-25T00:19:40.289Z,87.78
2024-04-25T00:20:40.348Z,87.33
2024-04-25T00:21:40.314Z,87.65
2024-04-25T00:22:40.290Z,87.34
2024-04-25T00:23:40.277Z,87.18
2024-04-25T00:24:40.280Z,86.89
2024-04-25T00:25:40.250Z,87.00
2024-04-25T00:26:40.328Z,87.31
2024-04-25T00:27:40.225Z,87.31
2024-04-25T00:28:40.216Z,87.17
2024-04-25T00:29:40.273Z,87.34
2024-04-25T00:30:40.190Z,87.33
2024-04-25T00:31:40.182Z,87.34
2024-04-25T00:32:40.314Z,87.63
2024-04-25T00:33:40.194Z,87.48
2024-04-25T00:34:40.155Z,87.55
2024-04-25T00:35:40.196Z,87.56
2024-04-25T00:36:40.206Z,87.58
2024-04-25T00:37:40.131Z,87.62
2024-04-25T00:38:40.159Z,87.83
2024-04-25T00:39:40.108Z,87.78
2024-04-25T00:40:40.105Z,88.20
2024-04-25T00:41:40.131Z,88.33
2024-04-25T00:42:40.088Z,88.22
2024-04-25T00:43:40.057Z,88.41
2024-04-25T00:44:40.093Z,88.66
2024-04-25T00:45:40.030Z,88.92
2024-04-25T00:46:40.053Z,89.00
2024-04-25T00:47:40.185Z,88.74
2024-04-25T00:48:40.057Z,88.64
2024-04-25T00:49:40.016Z,88.64
2024-04-25T00:50:40.048Z,88.79
2024-04-25T00:51:40.011Z,89.02
2024-04-25T00:52:39.990Z,88.94
2024-04-25T00:53:40.193Z,89.23
2024-04-25T00:54:39.944Z,89.70
2024-04-25T00:55:39.947Z,89.70
2024-04-25T00:56:40.077Z,89.55
2024-04-25T00:57:39.957Z,89.78
2024-04-25T00:58:39.905Z,89.80
2024-04-25T00:59:39.938Z,89.74
2024-04-25T01:00:39.922Z,89.60
2024-04-25T01:01:39.886Z,89.69
2024-04-25T01:02:39.946Z,89.26
2024-04-25T01:03:39.896Z,89.14
2024-04-25T01:04:39.857Z,88.04
2024-04-25T01:05:40.014Z,88.19
2024-04-25T01:06:39.813Z,88.23
2024-04-25T01:07:39.844Z,88.29
2024-04-25T01:08:39.992Z,88.12
2024-04-25T01:09:39.840Z,87.24
2024-04-25T01:10:39.836Z,87.35
2024-04-25T01:11:39.868Z,87.73
2024-04-25T01:12:39.815Z,88.02
2024-04-25T01:13:39.765Z,88.02
2024-04-25T01:14:39.796Z,88.37
2024-04-25T01:15:39.747Z,88.34
2024-04-25T01:16:39.775Z,88.58
2024-04-25T01:17:39.955Z,88.80
2024-04-25T01:18:39.698Z,89.05
2024-04-25T01:19:39.701Z,89.26
2024-04-25T01:20:39.743Z,89.23
2024-04-25T01:21:39.648Z,89.25
2024-04-25T01:22:39.687Z,88.94
2024-04-25T01:23:39.667Z,88.79
2024-04-25T01:24:39.683Z,88.69
2024-04-25T01:25:39.632Z,88.75
2024-04-25T01:26:39.661Z,88.36
2024-04-25T01:27:39.686Z,88.39
2024-04-25T01:28:39.601Z,88.68
2024-04-25T01:29:39.667Z,88.21
2024-04-25T01:30:39.577Z,88.27
2024-04-25T01:31:39.571Z,88.29
2024-04-25T01:32:39.724Z,88.44
2024-04-25T01:33:39.585Z,88.25
2024-04-25T01:34:39.543Z,88.34
2024-04-25T01:35:39.634Z,88.38
2024-04-25T01:36:39.510Z,88.71
2024-04-25T01:37:39.540Z,88.87
2024-04-25T01:38:39.561Z,88.91
2024-04-25T01:39:39.476Z,88.68
2024-04-25T01:40:39.475Z,89.03
2024-04-25T01:41:39.527Z,89.03
2024-04-25T01:42:39.483Z,89.11
2024-04-25T01:43:39.461Z,89.04
2024-04-25T01:44:39.512Z,89.49
2024-04-25T01:45:39.415Z,89.72
2024-04-25T01:46:39.441Z,89.70
2024-04-25T01:47:39.602Z,89.94
2024-04-25T01:48:39.589Z,90.12
2024-04-25T01:49:39.383Z,90.11
2024-04-25T01:50:39.450Z,90.16
2024-04-25T01:51:39.365Z,90.57
2024-04-25T01:52:39.397Z,90.56
2024-04-25T01:53:39.391Z,90.39
2024-04-25T01:54:39.342Z,90.50
2024-04-25T01:55:39.345Z,90.51
2024-04-25T01:56:39.361Z,90.61
2024-04-25T01:57:39.329Z,90.70
2024-04-25T01:58:39.291Z,90.65
2024-04-25T01:59:39.341Z,90.85
2024-04-25T02:00:39.270Z,90.82
2024-04-25T02:01:39.257Z,90.89
2024-04-25T02:02:39.383Z,90.81
2024-04-25T02:03:39.266Z,90.97
2024-04-25T02:04:39.222Z,90.75
2024-04-25T02:05:41.056Z,90.79
2024-04-25T02:06:39.217Z,91.10
2024-04-25T02:07:39.243Z,90.98
2024-04-25T02:08:39.203Z,91.20
2024-04-25T02:09:39.209Z,91.21
2024-04-25T02:10:39.222Z,91.33
2024-04-25T02:11:39.227Z,91.37
2024-04-25T02:12:39.179Z,90.99
2024-04-25T02:13:39.149Z,90.63
2024-04-25T02:14:39.123Z,90.41
2024-04-25T02:15:39.112Z,90.40
2024-04-25T02:16:39.119Z,90.48
2024-04-25T02:17:39.170Z,90.47
2024-04-25T02:18:39.127Z,90.57
2024-04-25T02:19:39.081Z,90.48
2024-04-25T02:20:39.170Z,89.75
2024-04-25T02:21:39.056Z,89.76
2024-04-25T02:22:39.100Z,89.57
2024-04-25T02:23:39.064Z,89.76
2024-04-25T02:24:39.027Z,89.86
2024-04-25T02:25:39.029Z,89.38
2024-04-25T02:26:39.082Z,89.58
2024-04-25T02:27:39.023Z,89.45
2024-04-25T02:28:39.017Z,89.05
2024-04-25T02:29:39.075Z,89.51
2024-04-25T02:30:39.004Z,89.35
2024-04-25T02:31:38.948Z,89.01
2024-04-25T02:32:39.068Z,88.83
2024-04-25T02:33:38.993Z,88.88
2024-04-25T02:34:38.918Z,88.78
2024-04-25T02:35:38.945Z,88.33
2024-04-25T02:36:38.923Z,88.18
2024-04-25T02:37:38.898Z,88.24
2024-04-25T02:38:38.984Z,88.29
2024-04-25T02:39:38.874Z,88.15
2024-04-25T02:40:38.874Z,88.55
2024-04-25T02:41:38.928Z,88.25
2024-04-25T02:42:38.860Z,88.13
2024-04-25T02:43:38.840Z,88.25
2024-04-25T02:44:38.890Z,88.54
2024-04-25T02:45:38.819Z,88.70
2024-04-25T02:46:38.799Z,88.59
2024-04-25T02:47:38.919Z,88.57
2024-04-25T02:48:39.016Z,88.80
2024-04-25T02:49:38.786Z,88.68
2024-04-25T02:50:38.891Z,88.81
2024-04-25T02:51:38.765Z,88.72
2024-04-25T02:52:38.742Z,88.77
2024-04-25T02:53:38.791Z,88.66
2024-04-25T02:54:38.740Z,88.89
2024-04-25T02:55:38.768Z,88.71
2024-04-25T02:56:38.764Z,88.85
2024-04-25T02:57:38.706Z,88.99
2024-04-25T02:58:38.664Z,89.10
2024-04-25T02:59:38.737Z,88.99
2024-04-25T03:00:38.708Z,89.21
2024-04-25T03:01:38.688Z,89.21
2024-04-25T03:02:38.726Z,89.27
2024-04-25T03:03:38.660Z,89.42
2024-04-25T03:04:38.613Z,89.39
2024-04-25T03:05:38.633Z,89.25
2024-04-25T03:06:38.583Z,88.74
2024-04-25T03:07:38.628Z,88.71
2024-04-25T03:08:38.646Z,88.82
2024-04-25T03:09:38.576Z,88.82
2024-04-25T03:10:38.546Z,88.56
2024-04-25T03:11:38.639Z,88.54
2024-04-25T03:12:38.526Z,88.58
2024-04-25T03:13:40.957Z,88.61
2024-04-25T03:14:38.595Z,88.66
2024-04-25T03:15:38.505Z,88.05
2024-04-25T03:16:38.496Z,87.89
2024-04-25T03:17:38.563Z,87.94
2024-04-25T03:18:38.553Z,87.92
2024-04-25T03:19:38.467Z,87.64
2024-04-25T03:20:38.544Z,87.58
2024-04-25T03:21:38.453Z,87.49
2024-04-25T03:22:38.431Z,87.73
2024-04-25T03:23:38.613Z,88.02
2024-04-25T03:24:38.404Z,88.14
2024-04-25T03:25:38.412Z,88.37
2024-04-25T03:26:38.450Z,88.52
2024-04-25T03:27:38.374Z,88.37
2024-04-25T03:28:38.352Z,88.09
2024-04-25T03:29:38.442Z,88.03
2024-04-25T03:30:38.351Z,87.96
2024-04-25T03:31:38.470Z,87.57
2024-04-25T03:32:38.477Z,87.67
2024-04-25T03:33:38.335Z,88.05
2024-04-25T03:34:38.331Z,87.83
2024-04-25T03:35:38.361Z,87.74
2024-04-25T03:36:38.290Z,87.25
2024-04-25T03:37:38.284Z,87.50
2024-04-25T03:38:38.373Z,87.30
2024-04-25T03:39:38.263Z,87.55
2024-04-25T03:40:38.278Z,87.72
2024-04-25T03:41:38.297Z,88.01
2024-04-25T03:42:38.234Z,87.93
2024-04-25T03:43:38.216Z,87.88
2024-04-25T03:44:38.278Z,87.59
2024-04-25T03:45:38.226Z,87.38
2024-04-25T03:46:38.194Z,87.50
2024-04-25T03:47:38.448Z,87.51
2024-04-25T03:48:38.236Z,87.65
2024-04-25T03:49:38.156Z,87.48
2024-04-25T03:50:38.268Z,87.37
2024-04-25T03:51:38.123Z,87.38
2024-04-25T03:52:38.135Z,87.59
2024-04-25T03:53:38.162Z,87.92
2024-04-25T03:54:38.175Z,87.63
2024-04-25T03:55:38.103Z,87.82
2024-04-25T03:56:38.156Z,87.82
2024-04-25T03:57:38.081Z,87.83
2024-04-25T03:58:38.054Z,88.01
2024-04-25T03:59:38.107Z,88.01
2024-04-25T04:00:38.064Z,88.05
2024-04-25T04:01:38.044Z,88.00
2024-04-25T04:02:38.121Z,87.56
2024-04-25T04:03:38.034Z,87.55
2024-04-25T04:04:38.000Z,87.56
2024-04-25T04:05:38.094Z,87.82
2024-04-25T04:06:37.972Z,87.88
2024-04-25T04:07:37.967Z,87.52
2024-04-25T04:08:38.218Z,87.33
2024-04-25T04:09:37.952Z,87.48
2024-04-25T04:10:37.954Z,87.64
2024-04-25T04:11:38.077Z,87.66
2024-04-25T04:12:37.927Z,87.75
2024-04-25T04:13:37.923Z,87.81
2024-04-25T04:14:37.939Z,88.15
2024-04-25T04:15:37.893Z,87.86
2024-04-25T04:16:37.944Z,87.90
2024-04-25T04:17:37.987Z,88.01
2024-04-25T04:18:37.867Z,88.10
2024-04-25T04:19:37.855Z,88.32
2024-04-25T04:20:37.844Z,88.26
2024-04-25T04:21:37.819Z,88.57
2024-04-25T04:22:37.836Z,88.23
2024-04-25T04:23:37.851Z,88.09
2024-04-25T04:24:37.799Z,88.02
2024-04-25T04:25:37.774Z,87.91
2024-04-25T04:26:37.859Z,88.34
2024-04-25T04:27:37.763Z,87.88
2024-04-25T04:28:37.792Z,87.97
2024-04-25T04:29:37.851Z,88.24
2024-04-25T04:30:37.742Z,88.29
2024-04-25T04:31:37.729Z,88.34
2024-04-25T04:32:37.851Z,88.33
2024-04-25T04:33:40.818Z,88.44
2024-04-25T04:34:37.810Z,88.50
2024-04-25T04:35:37.737Z,88.52
2024-04-25T04:36:37.653Z,88.46
2024-04-25T04:37:37.664Z,88.57
2024-04-25T04:38:37.702Z,88.75
2024-04-25T04:39:37.643Z,88.76
2024-04-25T04:40:37.665Z,88.47
2024-04-25T04:41:37.699Z,88.22
2024-04-25T04:42:37.617Z,88.29
2024-04-25T04:43:37.630Z,88.47
2024-04-25T04:44:37.674Z,88.39
2024-04-25T04:45:37.582Z,88.51
2024-04-25T04:46:37.611Z,88.51
2024-04-25T04:47:37.711Z,88.70
2024-04-25T04:48:37.649Z,88.19
2024-04-25T04:49:37.534Z,87.99
2024-04-25T04:50:37.661Z,88.17
2024-04-25T04:51:39.135Z,87.88
2024-04-25T04:52:37.551Z,87.50
2024-04-25T04:53:37.601Z,87.50
2024-04-25T04:54:37.479Z,87.38
2024-04-25T04:55:37.465Z,87.68
2024-04-25T04:56:37.600Z,87.80
2024-04-25T04:57:37.424Z,87.99
2024-04-25T04:58:37.476Z,88.04
2024-04-25T04:59:37.486Z,88.04
2024-04-25T05:00:37.438Z,88.19
2024-04-25T05:01:37.418Z,88.50
2024-04-25T05:02:37.500Z,88.56
2024-04-25T05:03:37.541Z,88.71
2024-04-25T05:04:37.394Z,88.53
2024-04-25T05:05:37.493Z,88.92
2024-04-25T05:06:37.358Z,89.26
2024-04-25T05:07:37.390Z,89.14
2024-04-25T05:08:37.455Z,88.67
2024-04-25T05:09:37.327Z,88.44
2024-04-25T05:10:37.348Z,88.34
2024-04-25T05:11:37.392Z,88.20
2024-04-25T05:12:37.301Z,88.15
2024-04-25T05:13:37.301Z,88.31
2024-04-25T05:14:37.406Z,87.90
2024-04-25T05:15:37.268Z,88.14
2024-04-25T05:16:37.300Z,87.66
2024-04-25T05:17:39.806Z,87.63
2024-04-25T05:18:37.260Z,87.56
2024-04-25T05:19:37.231Z,87.03
2024-04-25T05:20:37.268Z,86.83
2024-04-25T05:21:37.191Z,86.38
2024-04-25T05:22:37.225Z,85.19
2024-04-25T05:23:37.263Z,84.67
2024-04-25T05:24:37.191Z,85.26
2024-04-25T05:25:37.195Z,85.71
2024-04-25T05:26:37.247Z,85.77
2024-04-25T05:27:37.155Z,85.02
2024-04-25T05:28:37.193Z,85.05
2024-04-25T05:29:39.158Z,84.64
2024-04-25T05:30:37.106Z,83.76
2024-04-25T05:31:37.143Z,83.66
2024-04-25T05:32:37.156Z,83.84
2024-04-25T05:33:37.142Z,83.93
2024-04-25T05:34:37.130Z,83.65
2024-04-25T05:35:37.228Z,83.33
2024-04-25T05:36:37.080Z,83.80
2024-04-25T05:37:37.045Z,82.38
2024-04-25T05:38:37.039Z,82.35
2024-04-25T05:39:37.031Z,82.46
2024-04-25T05:40:37.054Z,83.16
2024-04-25T05:41:37.078Z,81.56
2024-04-25T05:42:37.008Z,81.15
2024-04-25T05:43:36.966Z,81.34
2024-04-25T05:44:37.017Z,82.03
2024-04-25T05:45:36.960Z,81.92
2024-04-25T05:46:37.005Z,81.25
2024-04-25T05:47:37.021Z,81.72
2024-04-25T05:48:36.989Z,80.57
2024-04-25T05:49:36.907Z,80.37
2024-04-25T05:50:36.950Z,81.42
2024-04-25T05:51:36.887Z,82.71
2024-04-25T05:52:36.903Z,81.12
2024-04-25T05:53:36.902Z,81.00
2024-04-25T05:54:36.887Z,80.80
2024-04-25T05:55:36.862Z,80.18
2024-04-25T05:56:36.879Z,80.48
2024-04-25T05:57:36.824Z,80.99
2024-04-25T05:58:36.843Z,81.93
2024-04-25T05:59:36.957Z,81.82
2024-04-25T06:00:36.802Z,81.59
2024-04-25T06:01:36.785Z,81.80
2024-04-25T06:02:36.833Z,82.29
2024-04-25T06:03:36.906Z,81.35
2024-04-25T06:04:36.836Z,81.16
2024-04-25T06:05:36.755Z,79.00
2024-04-25T06:06:36.729Z,78.85
2024-04-25T06:07:36.734Z,79.11
2024-04-25T06:08:38.861Z,78.89
2024-04-25T06:09:36.755Z,80.09
2024-04-25T06:10:36.777Z,79.67
2024-04-25T06:11:36.769Z,78.68
2024-04-25T06:12:36.724Z,78.81
2024-04-25T06:13:36.652Z,79.45
2024-04-25T06:14:36.688Z,79.49
2024-04-25T06:15:36.702Z,78.91
2024-04-25T06:16:36.687Z,80.59
2024-04-25T06:17:36.714Z,79.20
2024-04-25T06:18:36.709Z,78.69
2024-04-25T06:19:36.591Z,78.94
2024-04-25T06:20:36.627Z,78.10
2024-04-25T06:21:36.633Z,79.62
2024-04-25T06:22:36.722Z,79.13
2024-04-25T06:23:36.615Z,77.44
2024-04-25T06:24:36.556Z,76.93
2024-04-25T06:25:36.536Z,77.81
2024-04-25T06:26:36.585Z,76.82
2024-04-25T06:27:36.506Z,78.26
2024-04-25T06:28:36.552Z,77.82
2024-04-25T06:29:36.539Z,77.10
2024-04-25T06:30:36.514Z,77.60
2024-04-25T06:31:36.480Z,78.06
2024-04-25T06:32:39.253Z,76.84
2024-04-25T06:33:36.566Z,77.49
2024-04-25T06:34:36.480Z,77.69
2024-04-25T06:35:36.503Z,77.02
2024-04-25T06:36:36.446Z,77.19
2024-04-25T06:37:36.419Z,77.13
2024-04-25T06:38:36.465Z,76.99
2024-04-25T06:39:36.389Z,76.87
2024-04-25T06:40:36.416Z,76.63
2024-04-25T06:41:42.915Z,76.57
2024-04-25T06:42:36.351Z,75.96
2024-04-25T06:43:36.360Z,76.11
2024-04-25T06:44:40.680Z,76.75
2024-04-25T06:45:36.418Z,77.12
2024-04-25T06:46:36.367Z,76.03
2024-04-25T06:47:36.508Z,76.82
2024-04-25T06:48:36.428Z,76.11
2024-04-25T06:49:36.300Z,75.95
2024-04-25T06:50:36.311Z,75.09
2024-04-25T06:51:36.271Z,74.44
2024-04-25T06:52:36.307Z,76.13
2024-04-25T06:53:36.278Z,74.15
2024-04-25T06:54:36.254Z,74.10
2024-04-25T06:55:36.224Z,75.39
2024-04-25T06:56:36.259Z,74.30
2024-04-25T06:57:36.234Z,75.00
2024-04-25T06:58:36.242Z,75.73
2024-04-25T06:59:36.285Z,75.51
2024-04-25T07:00:36.229Z,75.65
2024-04-25T07:01:36.227Z,75.18
2024-04-25T07:02:36.192Z,75.26
2024-04-25T07:03:36.166Z,74.42
2024-04-25T07:04:36.158Z,75.05
2024-04-25T07:05:36.154Z,74.74
2024-04-25T07:06:36.108Z,73.82
2024-04-25T07:07:36.103Z,73.54
2024-04-25T07:08:36.093Z,73.86
2024-04-25T07:09:36.088Z,73.28
2024-04-25T07:10:36.127Z,74.95
2024-04-25T07:11:36.167Z,75.65
2024-04-25T07:12:36.053Z,74.62
2024-04-25T07:13:36.036Z,76.77
2024-04-25T07:14:36.113Z,75.89
2024-04-25T07:15:36.015Z,75.57
2024-04-25T07:16:36.040Z,76.46
2024-04-25T07:17:36.223Z,76.92
2024-04-25T07:18:36.056Z,77.02
2024-04-25T07:19:35.977Z,75.72
2024-04-25T07:20:36.034Z,76.08
2024-04-25T07:21:35.952Z,75.76
2024-04-25T07:22:35.991Z,75.49
2024-04-25T07:23:36.017Z,75.98
2024-04-25T07:24:35.914Z,76.42
2024-04-25T07:25:35.912Z,76.27
2024-04-25T07:26:35.958Z,75.97
2024-04-25T07:27:35.880Z,76.27
2024-04-25T07:28:35.923Z,76.78
2024-04-25T07:29:36.327Z,75.72
2024-04-25T07:30:35.853Z,74.71
2024-04-25T07:31:35.845Z,73.37
2024-04-25T07:32:35.961Z,74.05
2024-04-25T07:33:36.005Z,73.90
2024-04-25T07:34:35.851Z,73.42
2024-04-25T07:35:35.885Z,73.22
2024-04-25T07:36:35.819Z,72.35
2024-04-25T07:37:35.808Z,73.20
2024-04-25T07:38:35.852Z,73.11
2024-04-25T07:39:35.823Z,73.68
2024-04-25T07:40:35.817Z,72.50
2024-04-25T07:41:35.802Z,73.92
2024-04-25T07:42:35.723Z,73.57
2024-04-25T07:43:35.719Z,72.44
2024-04-25T07:44:35.729Z,71.25
2024-04-25T07:45:35.687Z,69.92
2024-04-25T07:46:35.765Z,70.32
2024-04-25T07:47:35.857Z,70.69
2024-04-25T07:48:35.696Z,71.53
2024-04-25T07:49:35.656Z,70.94
2024-04-25T07:50:35.692Z,70.60
2024-04-25T07:51:35.628Z,69.83
2024-04-25T07:52:35.648Z,70.11
2024-04-25T07:53:35.653Z,70.69
2024-04-25T07:54:35.596Z,72.34
2024-04-25T07:55:35.624Z,74.51
2024-04-25T07:56:35.591Z,75.07
2024-04-25T07:57:35.558Z,74.17
2024-04-25T07:58:35.591Z,73.37
2024-04-25T07:59:35.549Z,72.95
2024-04-25T08:00:35.527Z,72.48
2024-04-25T08:01:35.530Z,72.27
2024-04-25T08:02:35.557Z,72.57
2024-04-25T08:03:35.592Z,73.89
2024-04-25T08:04:35.570Z,72.64
2024-04-25T08:05:35.532Z,73.25
2024-04-25T08:06:35.574Z,73.55
2024-04-25T08:07:35.463Z,73.91
2024-04-25T08:08:35.493Z,73.29
2024-04-25T08:09:35.450Z,71.50
2024-04-25T08:10:35.497Z,72.08
2024-04-25T08:11:35.506Z,74.06
2024-04-25T08:12:35.413Z,72.07
2024-04-25T08:13:35.402Z,70.83
2024-04-25T08:14:35.399Z,69.93
2024-04-25T08:15:35.387Z,71.90
2024-04-25T08:16:35.458Z,67.04
2024-04-25T08:17:35.503Z,69.93
2024-04-25T08:18:35.379Z,72.49
2024-04-25T08:19:35.324Z,68.10
2024-04-25T08:20:35.385Z,66.34
2024-04-25T08:21:35.347Z,65.58
2024-04-25T08:22:35.351Z,65.30
2024-04-25T08:23:35.355Z,64.89
2024-04-25T08:24:35.308Z,66.79
2024-04-25T08:25:35.290Z,64.85
2024-04-25T08:26:35.287Z,65.58
2024-04-25T08:27:35.442Z,66.41
2024-04-25T08:28:35.962Z,67.39
2024-04-25T08:29:35.247Z,69.63
2024-04-25T08:30:35.211Z,67.03
2024-04-25T08:31:36.008Z,64.62
2024-04-25T08:32:35.861Z,64.02
2024-04-25T08:33:35.235Z,68.17
2024-04-25T08:34:35.206Z,69.71
2024-04-25T08:35:35.182Z,69.94
2024-04-25T08:36:35.140Z,69.79
2024-04-25T08:37:35.157Z,69.54
2024-04-25T08:38:35.154Z,66.46
2024-04-25T08:39:35.186Z,67.69
2024-04-25T08:40:35.151Z,65.92
2024-04-25T08:41:35.124Z,65.87
2024-04-25T08:42:35.082Z,66.27
2024-04-25T08:43:35.068Z,66.63
2024-04-25T08:44:35.090Z,64.91
2024-04-25T08:45:35.074Z,65.14
2024-04-25T08:46:35.093Z,65.85
2024-04-25T08:47:35.109Z,66.12
2024-04-25T08:48:35.037Z,64.77
2024-04-25T08:49:35.012Z,65.68
2024-04-25T08:50:35.003Z,66.77
2024-04-25T08:51:34.992Z,64.82
2024-04-25T08:52:35.040Z,66.52
2024-04-25T08:53:34.981Z,65.22
2024-04-25T08:54:34.951Z,65.52
2024-04-25T08:55:34.958Z,63.78
2024-04-25T08:56:35.027Z,62.03
2024-04-25T08:57:34.924Z,64.90
2024-04-25T08:58:34.954Z,63.17
2024-04-25T08:59:34.915Z,63.83
2024-04-25T09:00:35.271Z,65.49
2024-04-25T09:01:34.872Z,68.14
2024-04-25T09:02:34.967Z,67.64
2024-04-25T09:03:35.039Z,65.32
2024-04-25T09:04:34.910Z,64.46
2024-04-25T09:05:34.862Z,61.22
2024-04-25T09:06:34.835Z,63.89
2024-04-25T09:07:34.812Z,63.19
2024-04-25T09:08:34.824Z,61.87
2024-04-25T09:09:34.802Z,61.65
2024-04-25T09:10:34.818Z,60.76
2024-04-25T09:11:34.879Z,61.50
2024-04-25T09:12:34.790Z,59.64
2024-04-25T09:13:34.745Z,58.69
2024-04-25T09:14:34.836Z,61.01
2024-04-25T09:15:34.729Z,59.05
2024-04-25T09:16:34.798Z,59.37
2024-04-25T09:17:38.098Z,61.03
2024-04-25T09:18:34.726Z,60.67
2024-04-25T09:19:34.681Z,60.26
2024-04-25T09:20:34.702Z,60.99
2024-04-25T09:21:34.663Z,62.53
2024-04-25T09:22:34.676Z,65.03
2024-04-25T09:23:34.667Z,63.26
2024-04-25T09:24:34.625Z,65.52
2024-04-25T09:25:34.629Z,62.81
2024-04-25T09:26:34.672Z,60.05
2024-04-25T09:27:34.597Z,60.80
2024-04-25T09:28:39.493Z,61.40
2024-04-25T09:29:34.578Z,59.87
2024-04-25T09:30:34.564Z,63.26
2024-04-25T09:31:34.562Z,62.95
2024-04-25T09:32:34.607Z,62.23
2024-04-25T09:33:34.612Z,59.27
2024-04-25T09:34:34.575Z,59.87
2024-04-25T09:35:34.579Z,60.01
2024-04-25T09:36:34.498Z,61.06
2024-04-25T09:37:34.504Z,60.23
2024-04-25T09:38:34.489Z,61.29
2024-04-25T09:39:34.479Z,62.33
2024-04-25T09:40:34.513Z,61.18
2024-04-25T09:41:34.480Z,60.39
2024-04-25T09:42:34.442Z,58.66
2024-04-25T09:43:34.451Z,60.78
2024-04-25T09:44:34.488Z,62.18
2024-04-25T09:45:34.406Z,62.78
2024-04-25T09:46:34.426Z,59.78
2024-04-25T09:47:34.446Z,61.46
2024-04-25T09:48:34.452Z,61.54
2024-04-25T09:49:34.365Z,62.82
2024-04-25T09:50:34.393Z,63.61
2024-04-25T09:51:34.360Z,63.84
2024-04-25T09:52:34.361Z,63.96
2024-04-25T09:53:37.526Z,63.79
2024-04-25T09:54:34.358Z,64.74
2024-04-25T09:55:34.301Z,65.36
2024-04-25T09:56:34.320Z,67.18
2024-04-25T09:57:34.336Z,68.63
2024-04-25T09:58:34.301Z,69.79
2024-04-25T09:59:34.297Z,69.93
2024-04-25T10:00:34.272Z,71.27
2024-04-25T10:01:34.267Z,73.12
2024-04-25T10:02:34.389Z,73.75
2024-04-25T10:03:34.260Z,74.02
2024-04-25T10:04:35.951Z,73.87
2024-04-25T10:05:34.238Z,74.34
2024-04-25T10:06:34.222Z,74.62
2024-04-25T10:07:34.180Z,75.81
2024-04-25T10:08:34.200Z,76.10
2024-04-25T10:09:34.155Z,76.91
2024-04-25T10:10:34.177Z,74.61
2024-04-25T10:11:34.196Z,75.70
2024-04-25T10:12:34.118Z,76.11
2024-04-25T10:13:34.115Z,75.13
2024-04-25T10:14:34.113Z,75.73
2024-04-25T10:15:34.099Z,72.50
2024-04-25T10:16:34.102Z,72.41
2024-04-25T10:17:34.458Z,72.49
2024-04-25T10:18:34.124Z,72.69
2024-04-25T10:19:34.050Z,71.11
2024-04-25T10:20:34.064Z,72.75
2024-04-25T10:21:34.009Z,71.15
2024-04-25T10:22:34.695Z,71.07
2024-04-25T10:23:34.101Z,72.10
2024-04-25T10:24:33.980Z,69.83
2024-04-25T10:25:33.974Z,69.64
2024-04-25T10:26:33.983Z,68.14
2024-04-25T10:27:33.956Z,63.68
2024-04-25T10:28:33.987Z,62.61
2024-04-25T10:29:33.967Z,64.72
2024-04-25T10:30:33.926Z,63.31
2024-04-25T10:31:33.923Z,63.29
2024-04-25T10:32:34.047Z,63.46
2024-04-25T10:33:34.073Z,62.67
2024-04-25T10:34:33.898Z,63.66
2024-04-25T10:35:33.991Z,62.79
2024-04-25T10:36:33.886Z,63.42
2024-04-25T10:37:33.864Z,65.02
2024-04-25T10:38:33.862Z,64.55
2024-04-25T10:39:33.834Z,66.41
2024-04-25T10:40:33.847Z,67.60
2024-04-25T10:41:33.903Z,68.06
2024-04-25T10:42:33.798Z,70.69
2024-04-25T10:43:33.796Z,72.79
2024-04-25T10:44:33.797Z,74.23
2024-04-25T10:45:34.101Z,76.37
2024-04-25T10:46:33.811Z,76.36
2024-04-25T10:47:33.810Z,76.50
2024-04-25T10:48:33.985Z,78.16
2024-04-25T10:49:33.749Z,78.08
2024-04-25T10:50:33.765Z,77.90
2024-04-25T10:51:33.751Z,78.61
2024-04-25T10:52:33.728Z,79.10
2024-04-25T10:53:33.687Z,79.34
2024-04-25T10:54:33.684Z,79.65
2024-04-25T10:55:33.650Z,78.60
2024-04-25T10:56:33.653Z,77.69
2024-04-25T10:57:33.625Z,76.22
2024-04-25T10:58:33.639Z,75.59
2024-04-25T10:59:33.670Z,75.13
2024-04-25T11:00:33.606Z,73.65
2024-04-25T11:01:33.591Z,73.34
2024-04-25T11:02:33.611Z,73.08
2024-04-25T11:03:33.589Z,70.20
2024-04-25T11:04:33.612Z,70.68
2024-04-25T11:05:33.575Z,70.57
2024-04-25T11:06:33.531Z,67.74
2024-04-25T11:07:33.538Z,67.14
2024-04-25T11:08:33.562Z,67.93
2024-04-25T11:09:33.497Z,67.29
2024-04-25T11:10:33.553Z,67.01
2024-04-25T11:11:33.563Z,66.85
2024-04-25T11:12:33.459Z,68.70
2024-04-25T11:13:33.449Z,70.26
2024-04-25T11:14:33.483Z,73.01
2024-04-25T11:15:33.431Z,70.36
2024-04-25T11:16:33.450Z,70.12
2024-04-25T11:17:39.927Z,69.59
2024-04-25T11:18:34.159Z,68.62
2024-04-25T11:19:42.888Z,66.90
2024-04-25T11:20:33.687Z,63.88
2024-04-25T11:21:33.506Z,61.62
2024-04-25T11:22:41.816Z,63.72
2024-04-25T11:23:33.422Z,62.85
2024-04-25T11:24:33.522Z,64.23
2024-04-25T11:25:33.342Z,65.38
2024-04-25T11:26:33.334Z,61.47
2024-04-25T11:27:33.327Z,61.52
2024-04-25T11:28:33.342Z,58.70
2024-04-25T11:29:33.324Z,60.33
2024-04-25T11:30:33.774Z,61.91
2024-04-25T11:31:33.248Z,59.53
2024-04-25T11:32:33.347Z,58.84
2024-04-25T11:33:33.327Z,59.48
2024-04-25T11:34:33.262Z,58.41
2024-04-25T11:35:33.256Z,58.65
2024-04-25T11:36:33.227Z,57.82
2024-04-25T11:37:33.195Z,60.01
2024-04-25T11:38:33.218Z,62.64
2024-04-25T11:39:33.199Z,57.73
2024-04-25T11:40:33.215Z,58.97
2024-04-25T11:41:33.212Z,57.44
2024-04-25T11:42:33.159Z,54.35
2024-04-25T11:43:33.141Z,56.92
2024-04-25T11:44:33.183Z,57.59
2024-04-25T11:45:35.416Z,58.04
2024-04-25T11:46:33.152Z,59.26
2024-04-25T11:47:33.218Z,57.58
2024-04-25T11:48:33.215Z,56.05
2024-04-25T11:49:33.079Z,55.30
2024-04-25T11:50:33.188Z,57.12
2024-04-25T11:51:33.076Z,59.61
2024-04-25T11:52:33.125Z,59.09
2024-04-25T11:53:33.073Z,58.12
2024-04-25T11:54:33.028Z,59.99
2024-04-25T11:55:33.009Z,61.21
2024-04-25T11:56:33.031Z,56.89
2024-04-25T11:57:32.995Z,57.12
2024-04-25T11:58:33.041Z,60.31
2024-04-25T11:59:33.058Z,58.68
2024-04-25T12:00:32.963Z,58.25
2024-04-25T12:01:32.945Z,60.30
2024-04-25T12:02:32.968Z,57.16
2024-04-25T12:03:32.947Z,59.64
2024-04-25T12:04:33.000Z,61.50
2024-04-25T12:05:32.918Z,60.39
2024-04-25T12:06:32.895Z,58.25
2024-04-25T12:07:32.896Z,60.18
2024-04-25T12:08:32.915Z,57.51
2024-04-25T12:09:32.878Z,59.86
2024-04-25T12:10:32.899Z,58.37
2024-04-25T12:11:32.905Z,58.99
2024-04-25T12:12:32.890Z,50.88
2024-04-25T12:13:32.824Z,49.98
2024-04-25T12:14:32.841Z,50.84
2024-04-25T12:15:32.790Z,50.83
2024-04-25T12:16:32.875Z,51.99
2024-04-25T12:17:33.754Z,52.43
2024-04-25T12:18:32.845Z,49.16
2024-04-25T12:19:32.770Z,53.52
2024-04-25T12:20:32.801Z,57.01
2024-04-25T12:21:32.747Z,56.85
2024-04-25T12:22:32.823Z,56.87
2024-04-25T12:23:32.721Z,57.81
2024-04-25T12:24:32.698Z,57.54
2024-04-25T12:25:32.699Z,59.77
2024-04-25T12:26:32.713Z,60.91
2024-04-25T12:27:32.670Z,61.69
2024-04-25T12:28:34.742Z,61.80
2024-04-25T12:29:32.667Z,62.40
2024-04-25T12:30:32.642Z,61.79
2024-04-25T12:31:32.642Z,62.27
2024-04-25T12:32:32.764Z,62.06
2024-04-25T12:33:32.946Z,62.78
2024-04-25T12:34:32.801Z,63.59
2024-04-25T12:35:32.609Z,63.08
2024-04-25T12:36:32.578Z,62.77
2024-04-25T12:37:32.558Z,63.28
2024-04-25T12:38:32.575Z,62.45
2024-04-25T12:39:32.598Z,61.50
2024-04-25T12:40:32.546Z,62.23
2024-04-25T12:41:32.555Z,62.55
2024-04-25T12:42:32.513Z,63.40
2024-04-25T12:43:32.495Z,64.58
2024-04-25T12:44:32.525Z,62.95
2024-04-25T12:45:34.324Z,61.80
2024-04-25T12:46:32.499Z,61.72
2024-04-25T12:47:32.559Z,62.84
2024-04-25T12:48:32.596Z,61.66
2024-04-25T12:49:32.455Z,59.84
2024-04-25T12:50:32.489Z,59.73
2024-04-25T12:51:32.404Z,59.53
2024-04-25T12:52:32.430Z,59.89